sensor_id;sensor_type;location;lat;lon;timestamp;P1;durP1;ratioP1;P2;durP2;ratioP2
37855;SDS011;23694;43.274;26.924;2022-08-30T00:02:00;17.30;;;3.97;;
37855;SDS011;23694;43.274;26.924;2022-08-30T00:04:27;15.15;;;3.97;;
37855;SDS011;23694;43.274;26.924;2022-08-30T00:06:53;12.48;;;4.40;;
37855;SDS011;23694;43.274;26.924;2022-08-30T00:09:19;11.48;;;3.45;;
37855;SDS011;23694;43.274;26.924;2022-08-30T00:11:45;10.15;;;3.65;;
37855;SDS011;23694;43.274;26.924;2022-08-30T00:14:11;8.77;;;4.00;;
37855;SDS011;23694;43.274;26.924;2022-08-30T00:16:37;18.13;;;4.00;;
37855;SDS011;23694;43.274;26.924;2022-08-30T00:19:03;12.13;;;4.38;;
37855;SDS011;23694;43.274;26.924;2022-08-30T00:21:29;14.45;;;4.28;;
37855;SDS011;23694;43.274;26.924;2022-08-30T00:23:55;16.45;;;4.15;;
37855;SDS011;23694;43.274;26.924;2022-08-30T00:26:21;11.07;;;4.07;;
37855;SDS011;23694;43.274;26.924;2022-08-30T00:28:47;12.52;;;4.50;;
37855;SDS011;23694;43.274;26.924;2022-08-30T00:31:14;16.42;;;4.40;;
37855;SDS011;23694;43.274;26.924;2022-08-30T00:33:40;15.27;;;4.22;;
37855;SDS011;23694;43.274;26.924;2022-08-30T00:36:06;11.57;;;4.00;;
37855;SDS011;23694;43.274;26.924;2022-08-30T00:38:32;11.52;;;4.30;;
37855;SDS011;23694;43.274;26.924;2022-08-30T00:40:58;14.63;;;4.00;;
37855;SDS011;23694;43.274;26.924;2022-08-30T00:43:25;14.75;;;4.10;;
37855;SDS011;23694;43.274;26.924;2022-08-30T00:45:53;13.40;;;3.90;;
37855;SDS011;23694;43.274;26.924;2022-08-30T00:48:20;14.18;;;4.22;;
37855;SDS011;23694;43.274;26.924;2022-08-30T00:50:49;11.82;;;3.92;;
37855;SDS011;23694;43.274;26.924;2022-08-30T00:55:46;11.77;;;4.25;;
37855;SDS011;23694;43.274;26.924;2022-08-30T00:58:16;12.75;;;3.80;;
37855;SDS011;23694;43.274;26.924;2022-08-30T01:00:49;14.27;;;4.38;;
37855;SDS011;23694;43.274;26.924;2022-08-30T01:03:18;13.85;;;4.40;;
37855;SDS011;23694;43.274;26.924;2022-08-30T01:05:45;18.67;;;3.95;;
37855;SDS011;23694;43.274;26.924;2022-08-30T01:08:14;15.32;;;3.92;;
37855;SDS011;23694;43.274;26.924;2022-08-30T01:10:40;14.20;;;4.60;;
37855;SDS011;23694;43.274;26.924;2022-08-30T01:13:08;15.38;;;4.05;;
37855;SDS011;23694;43.274;26.924;2022-08-30T01:15:38;11.90;;;4.43;;
37855;SDS011;23694;43.274;26.924;2022-08-30T01:18:05;17.70;;;4.40;;
37855;SDS011;23694;43.274;26.924;2022-08-30T01:20:34;18.83;;;4.18;;
37855;SDS011;23694;43.274;26.924;2022-08-30T01:23:09;19.48;;;4.55;;
37855;SDS011;23694;43.274;26.924;2022-08-30T01:25:44;14.32;;;4.15;;
37855;SDS011;23694;43.274;26.924;2022-08-30T01:28:13;12.80;;;4.25;;
37855;SDS011;23694;43.274;26.924;2022-08-30T01:30:42;11.80;;;4.18;;
37855;SDS011;23694;43.274;26.924;2022-08-30T01:33:09;13.27;;;4.00;;
37855;SDS011;23694;43.274;26.924;2022-08-30T01:35:58;12.38;;;4.30;;
37855;SDS011;23694;43.274;26.924;2022-08-30T01:38:39;15.02;;;3.95;;
37855;SDS011;23694;43.274;26.924;2022-08-30T01:43:36;15.35;;;4.35;;
37855;SDS011;23694;43.274;26.924;2022-08-30T01:46:02;11.07;;;4.32;;
37855;SDS011;23694;43.274;26.924;2022-08-30T01:48:28;23.73;;;4.78;;
37855;SDS011;23694;43.274;26.924;2022-08-30T01:50:54;17.95;;;4.90;;
37855;SDS011;23694;43.274;26.924;2022-08-30T01:53:20;14.95;;;4.75;;
37855;SDS011;23694;43.274;26.924;2022-08-30T01:55:47;16.33;;;5.03;;
37855;SDS011;23694;43.274;26.924;2022-08-30T01:58:13;11.32;;;4.47;;
37855;SDS011;23694;43.274;26.924;2022-08-30T02:00:39;13.25;;;5.03;;
37855;SDS011;23694;43.274;26.924;2022-08-30T02:03:05;15.07;;;4.68;;
37855;SDS011;23694;43.274;26.924;2022-08-30T02:05:32;9.90;;;4.43;;
37855;SDS011;23694;43.274;26.924;2022-08-30T02:07:58;13.70;;;4.63;;
37855;SDS011;23694;43.274;26.924;2022-08-30T02:10:25;11.77;;;5.15;;
37855;SDS011;23694;43.274;26.924;2022-08-30T02:12:51;10.73;;;4.72;;
37855;SDS011;23694;43.274;26.924;2022-08-30T02:15:17;14.95;;;4.90;;
37855;SDS011;23694;43.274;26.924;2022-08-30T02:17:43;17.92;;;5.18;;
37855;SDS011;23694;43.274;26.924;2022-08-30T02:20:10;12.05;;;5.13;;
37855;SDS011;23694;43.274;26.924;2022-08-30T02:22:36;13.23;;;5.10;;
37855;SDS011;23694;43.274;26.924;2022-08-30T02:25:04;14.43;;;5.83;;
37855;SDS011;23694;43.274;26.924;2022-08-30T02:27:31;13.87;;;5.13;;
37855;SDS011;23694;43.274;26.924;2022-08-30T02:29:58;15.77;;;4.70;;
37855;SDS011;23694;43.274;26.924;2022-08-30T02:32:24;20.33;;;5.73;;
37855;SDS011;23694;43.274;26.924;2022-08-30T02:34:50;15.80;;;5.67;;
37855;SDS011;23694;43.274;26.924;2022-08-30T02:37:16;17.00;;;6.30;;
37855;SDS011;23694;43.274;26.924;2022-08-30T02:39:42;19.53;;;5.57;;
37855;SDS011;23694;43.274;26.924;2022-08-30T02:42:08;18.97;;;5.53;;
37855;SDS011;23694;43.274;26.924;2022-08-30T02:44:34;13.77;;;4.90;;
37855;SDS011;23694;43.274;26.924;2022-08-30T02:47:00;15.10;;;5.93;;
37855;SDS011;23694;43.274;26.924;2022-08-30T02:49:26;16.03;;;5.53;;
37855;SDS011;23694;43.274;26.924;2022-08-30T02:51:53;16.23;;;5.70;;
37855;SDS011;23694;43.274;26.924;2022-08-30T02:54:19;17.20;;;5.90;;
37855;SDS011;23694;43.274;26.924;2022-08-30T02:56:45;17.47;;;5.80;;
37855;SDS011;23694;43.274;26.924;2022-08-30T02:59:13;17.63;;;5.67;;
37855;SDS011;23694;43.274;26.924;2022-08-30T03:01:42;14.83;;;5.20;;
37855;SDS011;23694;43.274;26.924;2022-08-30T03:04:09;24.40;;;5.65;;
37855;SDS011;23694;43.274;26.924;2022-08-30T03:06:35;19.23;;;5.23;;
37855;SDS011;23694;43.274;26.924;2022-08-30T03:09:01;14.93;;;6.72;;
37855;SDS011;23694;43.274;26.924;2022-08-30T03:11:28;18.17;;;5.65;;
37855;SDS011;23694;43.274;26.924;2022-08-30T03:13:54;19.70;;;6.38;;
37855;SDS011;23694;43.274;26.924;2022-08-30T03:16:20;14.55;;;5.70;;
37855;SDS011;23694;43.274;26.924;2022-08-30T03:18:47;15.25;;;5.53;;
37855;SDS011;23694;43.274;26.924;2022-08-30T03:21:14;17.67;;;7.28;;
37855;SDS011;23694;43.274;26.924;2022-08-30T03:23:41;16.67;;;6.70;;
37855;SDS011;23694;43.274;26.924;2022-08-30T03:26:08;17.33;;;7.53;;
37855;SDS011;23694;43.274;26.924;2022-08-30T03:28:37;30.67;;;18.17;;
37855;SDS011;23694;43.274;26.924;2022-08-30T03:31:03;15.20;;;7.20;;
37855;SDS011;23694;43.274;26.924;2022-08-30T03:33:30;18.87;;;8.13;;
37855;SDS011;23694;43.274;26.924;2022-08-30T03:35:56;17.03;;;7.23;;
37855;SDS011;23694;43.274;26.924;2022-08-30T03:38:22;18.40;;;8.73;;
37855;SDS011;23694;43.274;26.924;2022-08-30T03:40:48;19.60;;;8.93;;
37855;SDS011;23694;43.274;26.924;2022-08-30T03:43:14;21.58;;;7.97;;
37855;SDS011;23694;43.274;26.924;2022-08-30T03:45:40;32.72;;;13.95;;
37855;SDS011;23694;43.274;26.924;2022-08-30T03:48:07;41.27;;;19.10;;
37855;SDS011;23694;43.274;26.924;2022-08-30T03:50:33;39.97;;;16.92;;
37855;SDS011;23694;43.274;26.924;2022-08-30T03:53:01;35.47;;;15.93;;
37855;SDS011;23694;43.274;26.924;2022-08-30T03:55:28;37.83;;;16.67;;
37855;SDS011;23694;43.274;26.924;2022-08-30T03:57:55;35.63;;;15.37;;
37855;SDS011;23694;43.274;26.924;2022-08-30T04:00:21;26.60;;;13.30;;
37855;SDS011;23694;43.274;26.924;2022-08-30T04:02:47;33.37;;;13.63;;
37855;SDS011;23694;43.274;26.924;2022-08-30T04:05:13;24.30;;;9.17;;
37855;SDS011;23694;43.274;26.924;2022-08-30T04:07:40;25.07;;;9.73;;
37855;SDS011;23694;43.274;26.924;2022-08-30T04:10:07;27.33;;;10.30;;
37855;SDS011;23694;43.274;26.924;2022-08-30T04:12:34;29.27;;;9.73;;
37855;SDS011;23694;43.274;26.924;2022-08-30T04:15:01;23.33;;;9.82;;
37855;SDS011;23694;43.274;26.924;2022-08-30T04:17:27;32.53;;;10.60;;
37855;SDS011;23694;43.274;26.924;2022-08-30T04:19:53;27.00;;;10.32;;
37855;SDS011;23694;43.274;26.924;2022-08-30T04:22:19;23.23;;;9.63;;
37855;SDS011;23694;43.274;26.924;2022-08-30T04:24:46;30.23;;;10.17;;
37855;SDS011;23694;43.274;26.924;2022-08-30T04:27:12;28.40;;;9.57;;
37855;SDS011;23694;43.274;26.924;2022-08-30T04:29:38;30.38;;;10.43;;
37855;SDS011;23694;43.274;26.924;2022-08-30T04:32:04;31.42;;;9.27;;
37855;SDS011;23694;43.274;26.924;2022-08-30T04:34:30;25.00;;;9.05;;
37855;SDS011;23694;43.274;26.924;2022-08-30T04:36:57;27.30;;;10.13;;
37855;SDS011;23694;43.274;26.924;2022-08-30T04:39:23;23.83;;;8.63;;
37855;SDS011;23694;43.274;26.924;2022-08-30T04:41:49;33.60;;;9.48;;
37855;SDS011;23694;43.274;26.924;2022-08-30T04:44:15;24.63;;;8.02;;
37855;SDS011;23694;43.274;26.924;2022-08-30T04:46:41;32.42;;;9.30;;
37855;SDS011;23694;43.274;26.924;2022-08-30T04:49:07;28.20;;;8.50;;
37855;SDS011;23694;43.274;26.924;2022-08-30T04:51:33;20.58;;;8.35;;
37855;SDS011;23694;43.274;26.924;2022-08-30T04:53:59;27.85;;;8.90;;
37855;SDS011;23694;43.274;26.924;2022-08-30T04:56:25;26.40;;;9.23;;
37855;SDS011;23694;43.274;26.924;2022-08-30T04:58:52;29.55;;;8.25;;
37855;SDS011;23694;43.274;26.924;2022-08-30T05:01:21;26.20;;;8.93;;
37855;SDS011;23694;43.274;26.924;2022-08-30T05:03:49;38.85;;;15.50;;
37855;SDS011;23694;43.274;26.924;2022-08-30T05:06:17;24.63;;;8.30;;
37855;SDS011;23694;43.274;26.924;2022-08-30T05:08:43;53.05;;;33.25;;
37855;SDS011;23694;43.274;26.924;2022-08-30T05:11:10;61.85;;;46.45;;
37855;SDS011;23694;43.274;26.924;2022-08-30T05:13:36;29.55;;;8.38;;
37855;SDS011;23694;43.274;26.924;2022-08-30T05:16:04;28.58;;;7.10;;
37855;SDS011;23694;43.274;26.924;2022-08-30T05:18:31;24.52;;;6.75;;
37855;SDS011;23694;43.274;26.924;2022-08-30T05:21:17;29.67;;;7.05;;
37855;SDS011;23694;43.274;26.924;2022-08-30T05:23:48;24.45;;;6.10;;
37855;SDS011;23694;43.274;26.924;2022-08-30T05:26:16;22.90;;;6.68;;
37855;SDS011;23694;43.274;26.924;2022-08-30T05:28:50;28.75;;;6.88;;
37855;SDS011;23694;43.274;26.924;2022-08-30T05:31:20;25.00;;;6.90;;
37855;SDS011;23694;43.274;26.924;2022-08-30T05:33:52;28.05;;;6.63;;
37855;SDS011;23694;43.274;26.924;2022-08-30T05:36:20;23.80;;;6.40;;
37855;SDS011;23694;43.274;26.924;2022-08-30T05:38:49;23.63;;;7.30;;
37855;SDS011;23694;43.274;26.924;2022-08-30T05:41:17;25.90;;;6.60;;
37855;SDS011;23694;43.274;26.924;2022-08-30T05:43:44;21.38;;;6.93;;
37855;SDS011;23694;43.274;26.924;2022-08-30T05:46:11;20.45;;;6.88;;
37855;SDS011;23694;43.274;26.924;2022-08-30T05:48:39;19.42;;;6.10;;
37855;SDS011;23694;43.274;26.924;2022-08-30T05:51:09;16.38;;;6.50;;
37855;SDS011;23694;43.274;26.924;2022-08-30T05:53:42;17.40;;;6.70;;
37855;SDS011;23694;43.274;26.924;2022-08-30T05:56:09;9.20;;;6.03;;
37855;SDS011;23694;43.274;26.924;2022-08-30T05:58:37;14.38;;;6.75;;
37855;SDS011;23694;43.274;26.924;2022-08-30T06:01:04;11.23;;;6.47;;
37855;SDS011;23694;43.274;26.924;2022-08-30T06:03:31;10.27;;;6.22;;
37855;SDS011;23694;43.274;26.924;2022-08-30T06:05:58;12.73;;;6.28;;
37855;SDS011;23694;43.274;26.924;2022-08-30T06:08:25;14.13;;;6.47;;
37855;SDS011;23694;43.274;26.924;2022-08-30T06:10:51;16.15;;;6.38;;
37855;SDS011;23694;43.274;26.924;2022-08-30T06:13:17;13.85;;;6.47;;
37855;SDS011;23694;43.274;26.924;2022-08-30T06:15:43;10.63;;;6.70;;
37855;SDS011;23694;43.274;26.924;2022-08-30T06:18:13;12.35;;;6.40;;
37855;SDS011;23694;43.274;26.924;2022-08-30T06:20:40;12.20;;;6.40;;
37855;SDS011;23694;43.274;26.924;2022-08-30T06:23:08;12.68;;;6.60;;
37855;SDS011;23694;43.274;26.924;2022-08-30T06:25:37;11.15;;;6.55;;
37855;SDS011;23694;43.274;26.924;2022-08-30T06:28:04;13.85;;;6.10;;
37855;SDS011;23694;43.274;26.924;2022-08-30T06:30:31;20.73;;;6.47;;
37855;SDS011;23694;43.274;26.924;2022-08-30T06:32:58;12.13;;;6.53;;
37855;SDS011;23694;43.274;26.924;2022-08-30T06:35:25;12.90;;;6.22;;
37855;SDS011;23694;43.274;26.924;2022-08-30T06:37:53;9.45;;;7.03;;
37855;SDS011;23694;43.274;26.924;2022-08-30T06:40:20;15.52;;;6.38;;
37855;SDS011;23694;43.274;26.924;2022-08-30T06:42:47;12.90;;;6.90;;
37855;SDS011;23694;43.274;26.924;2022-08-30T06:45:14;16.98;;;7.28;;
37855;SDS011;23694;43.274;26.924;2022-08-30T06:47:41;9.40;;;6.20;;
37855;SDS011;23694;43.274;26.924;2022-08-30T06:50:08;9.98;;;6.22;;
37855;SDS011;23694;43.274;26.924;2022-08-30T06:52:37;13.07;;;6.47;;
37855;SDS011;23694;43.274;26.924;2022-08-30T06:55:04;12.23;;;6.53;;
37855;SDS011;23694;43.274;26.924;2022-08-30T06:57:30;12.57;;;6.40;;
37855;SDS011;23694;43.274;26.924;2022-08-30T06:59:57;12.10;;;6.57;;
37855;SDS011;23694;43.274;26.924;2022-08-30T07:02:23;9.98;;;6.22;;
37855;SDS011;23694;43.274;26.924;2022-08-30T07:04:50;12.00;;;6.60;;
37855;SDS011;23694;43.274;26.924;2022-08-30T07:07:17;13.15;;;6.28;;
37855;SDS011;23694;43.274;26.924;2022-08-30T07:09:44;12.57;;;6.90;;
37855;SDS011;23694;43.274;26.924;2022-08-30T07:12:10;11.52;;;6.35;;
37855;SDS011;23694;43.274;26.924;2022-08-30T07:14:37;11.32;;;6.13;;
37855;SDS011;23694;43.274;26.924;2022-08-30T07:17:05;12.40;;;6.20;;
37855;SDS011;23694;43.274;26.924;2022-08-30T07:19:53;10.93;;;6.53;;
37855;SDS011;23694;43.274;26.924;2022-08-30T07:22:19;11.32;;;5.97;;
37855;SDS011;23694;43.274;26.924;2022-08-30T07:24:46;15.65;;;6.65;;
37855;SDS011;23694;43.274;26.924;2022-08-30T07:27:12;12.82;;;7.07;;
37855;SDS011;23694;43.274;26.924;2022-08-30T07:29:39;8.70;;;6.22;;
37855;SDS011;23694;43.274;26.924;2022-08-30T07:32:05;12.75;;;6.50;;
37855;SDS011;23694;43.274;26.924;2022-08-30T07:34:32;10.73;;;6.97;;
37855;SDS011;23694;43.274;26.924;2022-08-30T07:36:58;16.38;;;6.40;;
37855;SDS011;23694;43.274;26.924;2022-08-30T07:39:24;17.27;;;7.07;;
37855;SDS011;23694;43.274;26.924;2022-08-30T07:41:50;10.55;;;6.05;;
37855;SDS011;23694;43.274;26.924;2022-08-30T07:44:16;14.25;;;6.05;;
37855;SDS011;23694;43.274;26.924;2022-08-30T07:46:43;13.98;;;6.80;;
37855;SDS011;23694;43.274;26.924;2022-08-30T07:49:09;10.38;;;6.10;;
37855;SDS011;23694;43.274;26.924;2022-08-30T07:51:36;13.55;;;6.45;;
37855;SDS011;23694;43.274;26.924;2022-08-30T07:54:03;20.90;;;7.00;;
37855;SDS011;23694;43.274;26.924;2022-08-30T07:56:29;12.68;;;6.60;;
37855;SDS011;23694;43.274;26.924;2022-08-30T07:58:55;11.63;;;6.40;;
37855;SDS011;23694;43.274;26.924;2022-08-30T08:01:21;9.95;;;5.88;;
37855;SDS011;23694;43.274;26.924;2022-08-30T08:03:48;9.88;;;5.68;;
37855;SDS011;23694;43.274;26.924;2022-08-30T08:06:16;13.82;;;5.68;;
37855;SDS011;23694;43.274;26.924;2022-08-30T08:08:43;9.38;;;6.00;;
37855;SDS011;23694;43.274;26.924;2022-08-30T08:11:14;9.48;;;6.05;;
37855;SDS011;23694;43.274;26.924;2022-08-30T08:13:42;15.13;;;6.25;;
37855;SDS011;23694;43.274;26.924;2022-08-30T08:16:09;13.93;;;6.40;;
37855;SDS011;23694;43.274;26.924;2022-08-30T08:18:36;17.40;;;6.57;;
37855;SDS011;23694;43.274;26.924;2022-08-30T08:21:02;14.85;;;6.03;;
37855;SDS011;23694;43.274;26.924;2022-08-30T08:23:29;12.00;;;6.47;;
37855;SDS011;23694;43.274;26.924;2022-08-30T08:25:55;13.68;;;5.53;;
37855;SDS011;23694;43.274;26.924;2022-08-30T08:28:22;16.10;;;5.47;;
37855;SDS011;23694;43.274;26.924;2022-08-30T08:30:48;12.25;;;5.45;;
37855;SDS011;23694;43.274;26.924;2022-08-30T08:33:15;15.65;;;6.13;;
37855;SDS011;23694;43.274;26.924;2022-08-30T08:35:42;17.50;;;6.63;;
37855;SDS011;23694;43.274;26.924;2022-08-30T08:38:08;11.85;;;6.10;;
37855;SDS011;23694;43.274;26.924;2022-08-30T08:40:37;15.55;;;5.82;;
37855;SDS011;23694;43.274;26.924;2022-08-30T08:43:15;11.00;;;5.22;;
37855;SDS011;23694;43.274;26.924;2022-08-30T08:51:04;11.55;;;4.95;;
37855;SDS011;23694;43.274;26.924;2022-08-30T08:53:59;11.00;;;5.10;;
37855;SDS011;23694;43.274;26.924;2022-08-30T08:56:31;9.57;;;5.57;;
37855;SDS011;23694;43.274;26.924;2022-08-30T08:58:57;19.02;;;4.88;;
37855;SDS011;23694;43.274;26.924;2022-08-30T09:01:24;11.43;;;4.93;;
37855;SDS011;23694;43.274;26.924;2022-08-30T09:03:57;14.50;;;5.38;;
37855;SDS011;23694;43.274;26.924;2022-08-30T09:09:15;16.73;;;4.63;;
37855;SDS011;23694;43.274;26.924;2022-08-30T09:14:13;13.38;;;4.60;;
37855;SDS011;23694;43.274;26.924;2022-08-30T09:19:28;17.85;;;4.25;;
37855;SDS011;23694;43.274;26.924;2022-08-30T09:22:00;18.25;;;4.28;;
37855;SDS011;23694;43.274;26.924;2022-08-30T09:24:36;17.00;;;5.13;;
37855;SDS011;23694;43.274;26.924;2022-08-30T09:27:21;9.70;;;4.50;;
37855;SDS011;23694;43.274;26.924;2022-08-30T09:29:55;12.70;;;4.43;;
37855;SDS011;23694;43.274;26.924;2022-08-30T09:33:18;16.40;;;5.25;;
37855;SDS011;23694;43.274;26.924;2022-08-30T09:35:20;14.40;;;4.65;;
37855;SDS011;23694;43.274;26.924;2022-08-30T09:37:53;15.30;;;4.90;;
37855;SDS011;23694;43.274;26.924;2022-08-30T09:40:26;13.57;;;4.40;;
37855;SDS011;23694;43.274;26.924;2022-08-30T09:42:59;13.35;;;4.80;;
37855;SDS011;23694;43.274;26.924;2022-08-30T09:45:34;17.05;;;4.63;;
37855;SDS011;23694;43.274;26.924;2022-08-30T09:48:50;9.65;;;4.95;;
37855;SDS011;23694;43.274;26.924;2022-08-30T09:51:44;11.50;;;4.38;;
37855;SDS011;23694;43.274;26.924;2022-08-30T10:05:07;10.50;;;4.47;;
37855;SDS011;23694;43.274;26.924;2022-08-30T10:21:42;13.38;;;4.57;;
37855;SDS011;23694;43.274;26.924;2022-08-30T10:24:11;18.40;;;4.13;;
37855;SDS011;23694;43.274;26.924;2022-08-30T10:29:24;8.57;;;4.32;;
37855;SDS011;23694;43.274;26.924;2022-08-30T10:32:16;12.57;;;4.38;;
37855;SDS011;23694;43.274;26.924;2022-08-30T10:37:27;10.77;;;3.70;;
37855;SDS011;23694;43.274;26.924;2022-08-30T10:39:57;10.70;;;4.70;;
37855;SDS011;23694;43.274;26.924;2022-08-30T10:42:48;10.30;;;4.10;;
37855;SDS011;23694;43.274;26.924;2022-08-30T10:45:17;8.60;;;3.88;;
37855;SDS011;23694;43.274;26.924;2022-08-30T10:47:45;10.32;;;3.50;;
37855;SDS011;23694;43.274;26.924;2022-08-30T10:50:21;12.38;;;4.20;;
37855;SDS011;23694;43.274;26.924;2022-08-30T10:55:33;10.02;;;4.15;;
37855;SDS011;23694;43.274;26.924;2022-08-30T10:58:03;13.20;;;4.32;;
37855;SDS011;23694;43.274;26.924;2022-08-30T11:00:41;11.30;;;4.07;;
37855;SDS011;23694;43.274;26.924;2022-08-30T11:03:38;13.30;;;4.13;;
37855;SDS011;23694;43.274;26.924;2022-08-30T11:06:30;10.57;;;4.10;;
37855;SDS011;23694;43.274;26.924;2022-08-30T11:14:42;9.75;;;3.38;;
37855;SDS011;23694;43.274;26.924;2022-08-30T11:18:11;8.77;;;3.50;;
37855;SDS011;23694;43.274;26.924;2022-08-30T11:25:58;11.30;;;3.80;;
37855;SDS011;23694;43.274;26.924;2022-08-30T11:31:27;13.30;;;3.83;;
37855;SDS011;23694;43.274;26.924;2022-08-30T11:34:01;17.65;;;4.38;;
37855;SDS011;23694;43.274;26.924;2022-08-30T11:38:59;17.67;;;3.97;;
37855;SDS011;23694;43.274;26.924;2022-08-30T11:44:43;14.80;;;3.70;;
37855;SDS011;23694;43.274;26.924;2022-08-30T11:46:53;14.25;;;3.65;;
37855;SDS011;23694;43.274;26.924;2022-08-30T11:49:25;16.90;;;3.70;;
37855;SDS011;23694;43.274;26.924;2022-08-30T11:52:10;14.70;;;4.15;;
37855;SDS011;23694;43.274;26.924;2022-08-30T12:00:34;12.88;;;2.80;;
37855;SDS011;23694;43.274;26.924;2022-08-30T12:03:05;13.63;;;3.13;;
37855;SDS011;23694;43.274;26.924;2022-08-30T12:18:48;12.75;;;3.15;;
37855;SDS011;23694;43.274;26.924;2022-08-30T12:23:51;11.50;;;3.10;;
37855;SDS011;23694;43.274;26.924;2022-08-30T12:26:38;15.02;;;3.78;;
37855;SDS011;23694;43.274;26.924;2022-08-30T12:44:45;15.55;;;4.15;;
37855;SDS011;23694;43.274;26.924;2022-08-30T12:47:15;14.30;;;3.40;;
37855;SDS011;23694;43.274;26.924;2022-08-30T12:49:44;10.98;;;3.88;;
37855;SDS011;23694;43.274;26.924;2022-08-30T12:55:04;12.50;;;3.45;;
37855;SDS011;23694;43.274;26.924;2022-08-30T12:57:43;13.05;;;3.45;;
37855;SDS011;23694;43.274;26.924;2022-08-30T13:00:33;18.73;;;3.90;;
37855;SDS011;23694;43.274;26.924;2022-08-30T13:06:01;11.55;;;3.30;;
37855;SDS011;23694;43.274;26.924;2022-08-30T13:11:02;16.73;;;3.83;;
37855;SDS011;23694;43.274;26.924;2022-08-30T13:13:45;15.10;;;3.33;;
37855;SDS011;23694;43.274;26.924;2022-08-30T13:18:54;16.85;;;3.63;;
37855;SDS011;23694;43.274;26.924;2022-08-30T13:21:54;12.05;;;3.20;;
37855;SDS011;23694;43.274;26.924;2022-08-30T13:24:21;18.25;;;3.90;;
37855;SDS011;23694;43.274;26.924;2022-08-30T13:26:48;18.52;;;3.65;;
37855;SDS011;23694;43.274;26.924;2022-08-30T13:29:16;18.63;;;3.63;;
37855;SDS011;23694;43.274;26.924;2022-08-30T13:31:44;15.07;;;3.50;;
37855;SDS011;23694;43.274;26.924;2022-08-30T13:34:11;10.50;;;3.47;;
37855;SDS011;23694;43.274;26.924;2022-08-30T13:36:45;11.82;;;3.28;;
37855;SDS011;23694;43.274;26.924;2022-08-30T13:39:15;20.38;;;4.03;;
37855;SDS011;23694;43.274;26.924;2022-08-30T13:41:41;16.10;;;3.20;;
37855;SDS011;23694;43.274;26.924;2022-08-30T13:44:08;17.98;;;4.07;;
37855;SDS011;23694;43.274;26.924;2022-08-30T13:46:34;13.43;;;3.20;;
37855;SDS011;23694;43.274;26.924;2022-08-30T13:49:03;12.57;;;2.97;;
37855;SDS011;23694;43.274;26.924;2022-08-30T13:51:31;13.80;;;3.13;;
37855;SDS011;23694;43.274;26.924;2022-08-30T13:53:58;12.73;;;3.20;;
37855;SDS011;23694;43.274;26.924;2022-08-30T13:56:25;8.20;;;2.95;;
37855;SDS011;23694;43.274;26.924;2022-08-30T14:01:25;18.15;;;3.63;;
37855;SDS011;23694;43.274;26.924;2022-08-30T14:03:52;22.17;;;3.70;;
37855;SDS011;23694;43.274;26.924;2022-08-30T14:06:18;20.23;;;3.80;;
37855;SDS011;23694;43.274;26.924;2022-08-30T14:08:44;12.60;;;3.75;;
37855;SDS011;23694;43.274;26.924;2022-08-30T14:11:11;13.48;;;3.30;;
37855;SDS011;23694;43.274;26.924;2022-08-30T14:13:41;8.52;;;3.45;;
37855;SDS011;23694;43.274;26.924;2022-08-30T14:16:10;16.30;;;3.47;;
37855;SDS011;23694;43.274;26.924;2022-08-30T14:18:36;15.57;;;3.72;;
37855;SDS011;23694;43.274;26.924;2022-08-30T14:21:03;10.15;;;3.00;;
37855;SDS011;23694;43.274;26.924;2022-08-30T14:23:29;13.43;;;3.70;;
37855;SDS011;23694;43.274;26.924;2022-08-30T14:25:55;12.40;;;3.65;;
37855;SDS011;23694;43.274;26.924;2022-08-30T14:28:24;12.55;;;3.85;;
37855;SDS011;23694;43.274;26.924;2022-08-30T14:30:54;13.05;;;4.45;;
37855;SDS011;23694;43.274;26.924;2022-08-30T14:33:21;19.98;;;3.95;;
37855;SDS011;23694;43.274;26.924;2022-08-30T14:35:48;15.25;;;4.05;;
37855;SDS011;23694;43.274;26.924;2022-08-30T14:38:14;15.50;;;3.95;;
37855;SDS011;23694;43.274;26.924;2022-08-30T14:40:40;13.00;;;4.47;;
37855;SDS011;23694;43.274;26.924;2022-08-30T14:43:06;11.48;;;2.95;;
37855;SDS011;23694;43.274;26.924;2022-08-30T14:45:32;17.23;;;4.30;;
37855;SDS011;23694;43.274;26.924;2022-08-30T14:47:58;21.38;;;4.82;;
37855;SDS011;23694;43.274;26.924;2022-08-30T14:50:27;14.05;;;4.20;;
37855;SDS011;23694;43.274;26.924;2022-08-30T14:52:53;19.33;;;4.15;;
37855;SDS011;23694;43.274;26.924;2022-08-30T14:55:19;14.38;;;3.80;;
37855;SDS011;23694;43.274;26.924;2022-08-30T14:57:45;22.30;;;4.30;;
37855;SDS011;23694;43.274;26.924;2022-08-30T15:00:13;11.65;;;3.28;;
37855;SDS011;23694;43.274;26.924;2022-08-30T15:02:40;14.95;;;4.63;;
37855;SDS011;23694;43.274;26.924;2022-08-30T15:05:07;17.17;;;4.60;;
37855;SDS011;23694;43.274;26.924;2022-08-30T15:07:33;11.98;;;3.83;;
37855;SDS011;23694;43.274;26.924;2022-08-30T15:09:59;12.98;;;3.55;;
37855;SDS011;23694;43.274;26.924;2022-08-30T15:12:25;17.35;;;4.00;;
37855;SDS011;23694;43.274;26.924;2022-08-30T15:14:51;23.63;;;4.50;;
37855;SDS011;23694;43.274;26.924;2022-08-30T15:17:17;18.30;;;4.30;;
37855;SDS011;23694;43.274;26.924;2022-08-30T15:19:44;22.73;;;5.07;;
37855;SDS011;23694;43.274;26.924;2022-08-30T15:22:10;14.93;;;4.88;;
37855;SDS011;23694;43.274;26.924;2022-08-30T15:24:36;17.17;;;4.40;;
37855;SDS011;23694;43.274;26.924;2022-08-30T15:27:02;12.52;;;4.28;;
37855;SDS011;23694;43.274;26.924;2022-08-30T15:29:29;18.27;;;4.63;;
37855;SDS011;23694;43.274;26.924;2022-08-30T15:31:55;21.52;;;4.53;;
37855;SDS011;23694;43.274;26.924;2022-08-30T15:34:22;15.07;;;4.68;;
37855;SDS011;23694;43.274;26.924;2022-08-30T15:36:49;14.52;;;4.47;;
37855;SDS011;23694;43.274;26.924;2022-08-30T15:39:16;17.90;;;4.68;;
37855;SDS011;23694;43.274;26.924;2022-08-30T15:41:43;20.42;;;4.05;;
37855;SDS011;23694;43.274;26.924;2022-08-30T15:44:10;20.17;;;4.30;;
37855;SDS011;23694;43.274;26.924;2022-08-30T15:46:38;16.85;;;4.63;;
37855;SDS011;23694;43.274;26.924;2022-08-30T15:49:09;19.88;;;4.97;;
37855;SDS011;23694;43.274;26.924;2022-08-30T15:51:41;20.48;;;4.53;;
37855;SDS011;23694;43.274;26.924;2022-08-30T15:54:12;17.45;;;5.95;;
37855;SDS011;23694;43.274;26.924;2022-08-30T15:56:40;22.17;;;4.45;;
37855;SDS011;23694;43.274;26.924;2022-08-30T15:59:06;23.40;;;5.47;;
37855;SDS011;23694;43.274;26.924;2022-08-30T16:01:33;18.98;;;4.20;;
37855;SDS011;23694;43.274;26.924;2022-08-30T16:03:59;20.50;;;4.82;;
37855;SDS011;23694;43.274;26.924;2022-08-30T16:06:28;18.45;;;5.85;;
37855;SDS011;23694;43.274;26.924;2022-08-30T16:08:56;19.57;;;4.83;;
37855;SDS011;23694;43.274;26.924;2022-08-30T16:11:23;23.13;;;5.88;;
37855;SDS011;23694;43.274;26.924;2022-08-30T16:13:50;18.27;;;5.35;;
37855;SDS011;23694;43.274;26.924;2022-08-30T16:16:18;28.00;;;6.03;;
37855;SDS011;23694;43.274;26.924;2022-08-30T16:18:46;21.00;;;5.68;;
37855;SDS011;23694;43.274;26.924;2022-08-30T16:21:18;25.48;;;5.88;;
37855;SDS011;23694;43.274;26.924;2022-08-30T16:23:46;19.67;;;4.93;;
37855;SDS011;23694;43.274;26.924;2022-08-30T16:26:13;21.77;;;6.80;;
37855;SDS011;23694;43.274;26.924;2022-08-30T16:28:43;32.95;;;7.15;;
37855;SDS011;23694;43.274;26.924;2022-08-30T16:31:10;20.98;;;5.57;;
37855;SDS011;23694;43.274;26.924;2022-08-30T16:33:36;22.42;;;6.40;;